createdAt,value
2023-04-21T00:01:56.676Z,8.10
2023-04-21T00:04:24.079Z,8.10
2023-04-21T00:06:53.213Z,8.10
2023-04-21T00:09:23.100Z,8.20
2023-04-21T00:11:50.431Z,8.10
2023-04-21T00:14:17.920Z,8.20
2023-04-21T00:16:44.860Z,8.20
2023-04-21T00:19:13.864Z,8.10
2023-04-21T00:21:40.993Z,8.10
2023-04-21T00:24:08.680Z,8.10
2023-04-21T00:26:35.555Z,8.10
2023-04-21T00:29:02.606Z,8.10
2023-04-21T00:31:29.668Z,8.10
2023-04-21T00:33:56.527Z,8.10
2023-04-21T00:36:25.005Z,8.10
2023-04-21T00:38:51.910Z,8.10
2023-04-21T00:41:18.774Z,8.20
2023-04-21T00:44:09.254Z,8.10
2023-04-21T00:46:36.522Z,8.10
2023-04-21T00:49:06.970Z,8.10
2023-04-21T00:51:35.218Z,8.10
2023-04-21T00:54:06.619Z,8.10
2023-04-21T00:56:34.835Z,8.10
2023-04-21T00:59:02.186Z,8.10
2023-04-21T01:01:34.390Z,8.10
2023-04-21T01:04:03.487Z,8.10
2023-04-21T01:06:32.356Z,8.10
2023-04-21T01:08:59.318Z,8.20
2023-04-21T01:11:26.450Z,8.20
2023-04-21T01:13:56.446Z,8.10
2023-04-21T01:16:24.272Z,8.10
2023-04-21T01:18:53.501Z,8.10
2023-04-21T01:21:21.584Z,8.10
2023-04-21T01:23:48.505Z,8.10
2023-04-21T01:26:18.602Z,8.10
2023-04-21T01:28:47.755Z,8.10
2023-04-21T01:31:15.696Z,8.10
2023-04-21T01:33:42.620Z,8.00
2023-04-21T01:36:09.800Z,8.10
2023-04-21T01:38:42.060Z,8.10
2023-04-21T01:41:09.659Z,8.10
2023-04-21T01:43:37.273Z,8.20
2023-04-21T01:46:05.230Z,8.10
2023-04-21T01:48:32.082Z,8.10
2023-04-21T01:50:59.064Z,8.10
2023-04-21T01:53:27.091Z,8.10
2023-04-21T01:55:54.156Z,8.10
2023-04-21T01:58:21.684Z,8.10
2023-04-21T02:00:48.557Z,8.10
2023-04-21T02:03:16.246Z,8.10
2023-04-21T02:05:43.305Z,8.10
2023-04-21T02:08:10.361Z,8.00
2023-04-21T02:10:37.322Z,7.90
2023-04-21T02:13:04.289Z,7.80
2023-04-21T02:15:31.317Z,7.70
2023-04-21T02:17:58.355Z,7.60
2023-04-21T02:20:25.503Z,7.50
2023-04-21T02:22:52.379Z,7.40
2023-04-21T02:25:20.190Z,7.40
2023-04-21T02:27:47.142Z,7.30
2023-04-21T02:30:14.091Z,7.30
2023-04-21T02:32:41.061Z,7.20
2023-04-21T02:35:08.347Z,7.10
2023-04-21T02:37:35.305Z,7.10
2023-04-21T02:40:02.205Z,7.00
2023-04-21T02:42:29.032Z,7.00
2023-04-21T02:44:55.891Z,7.00
2023-04-21T02:47:22.739Z,6.90
2023-04-21T02:49:49.587Z,6.90
2023-04-21T02:52:16.608Z,6.80
2023-04-21T02:54:43.938Z,6.80
2023-04-21T02:57:10.973Z,6.80
2023-04-21T02:59:38.113Z,6.70
2023-04-21T03:02:04.977Z,6.70
2023-04-21T03:04:32.642Z,6.70
2023-04-21T03:06:59.719Z,6.60
2023-04-21T03:09:26.577Z,6.70
2023-04-21T03:11:53.413Z,6.70
2023-04-21T03:14:20.367Z,6.70
2023-04-21T03:16:47.506Z,6.80
2023-04-21T03:19:14.377Z,6.80
2023-04-21T03:21:42.531Z,6.70
2023-04-21T03:24:09.433Z,6.70
2023-04-21T03:26:36.345Z,6.70
2023-04-21T03:29:03.218Z,6.70
2023-04-21T03:31:30.069Z,6.70
2023-04-21T03:33:57.091Z,6.70
2023-04-21T03:36:24.055Z,6.70
2023-04-21T03:38:50.993Z,6.70
2023-04-21T03:41:17.966Z,6.70
2023-04-21T03:43:44.939Z,6.60
2023-04-21T03:46:21.484Z,6.70
2023-04-21T03:48:48.793Z,6.60
2023-04-21T03:51:16.018Z,6.60
2023-04-21T03:53:42.975Z,6.60
2023-04-21T03:56:09.963Z,6.60
2023-04-21T03:58:36.940Z,6.60
2023-04-21T04:01:06.500Z,6.50
2023-04-21T04:03:34.294Z,6.60
2023-04-21T04:06:02.900Z,6.60
2023-04-21T04:08:30.264Z,6.60
2023-04-21T04:10:59.628Z,6.60
2023-04-21T04:13:27.663Z,6.60
2023-04-21T04:15:54.486Z,6.60
2023-04-21T04:18:21.658Z,6.60
2023-04-21T04:20:49.628Z,6.60
2023-04-21T04:23:16.577Z,6.60
2023-04-21T04:25:43.489Z,6.50
2023-04-21T04:28:10.611Z,6.50
2023-04-21T04:30:37.885Z,6.50
2023-04-21T04:33:05.071Z,6.50
2023-04-21T04:35:32.052Z,6.50
2023-04-21T04:37:59.186Z,6.50
2023-04-21T04:40:26.163Z,6.50
2023-04-21T04:42:53.026Z,6.50
2023-04-21T04:45:22.057Z,6.60
2023-04-21T04:47:50.056Z,6.60
2023-04-21T04:50:17.019Z,6.70
2023-04-21T04:52:47.000Z,6.70
2023-04-21T04:55:14.521Z,6.70
2023-04-21T04:57:41.694Z,6.80
2023-04-21T05:00:11.507Z,6.80
2023-04-21T05:02:39.229Z,6.80
2023-04-21T05:05:07.191Z,6.80
2023-04-21T05:07:44.240Z,6.90
2023-04-21T05:10:11.245Z,6.90
2023-04-21T05:12:38.112Z,7.00
2023-04-21T05:15:06.632Z,7.00
2023-04-21T05:17:34.118Z,7.00
2023-04-21T05:20:01.177Z,7.20
2023-04-21T05:22:28.092Z,7.20
2023-04-21T05:24:55.092Z,7.20
2023-04-21T05:27:22.140Z,7.30
2023-04-21T05:29:48.979Z,7.30
2023-04-21T05:32:16.076Z,7.40
2023-04-21T05:34:43.077Z,7.40
2023-04-21T05:37:11.937Z,7.50
2023-04-21T05:39:38.987Z,7.50
2023-04-21T05:42:06.728Z,7.50
2023-04-21T05:44:33.765Z,7.50
2023-04-21T05:47:00.789Z,7.60
2023-04-21T05:49:27.635Z,7.60
2023-04-21T05:51:54.414Z,7.50
2023-04-21T05:54:21.632Z,7.60
2023-04-21T05:56:49.282Z,7.60
2023-04-21T05:59:16.352Z,7.60
2023-04-21T06:01:43.911Z,7.60
2023-04-21T06:04:11.254Z,7.60
2023-04-21T06:06:38.912Z,7.60
2023-04-21T06:09:06.586Z,7.70
2023-04-21T06:11:33.713Z,7.70
2023-04-21T06:14:01.849Z,7.80
2023-04-21T06:16:29.462Z,7.80
2023-04-21T06:18:59.051Z,7.90
2023-04-21T06:21:26.007Z,7.90
2023-04-21T06:23:53.054Z,7.90
2023-04-21T06:26:20.004Z,8.00
2023-04-21T06:28:46.951Z,8.00
2023-04-21T06:31:16.612Z,8.00
2023-04-21T06:33:43.530Z,8.00
2023-04-21T06:36:11.466Z,8.10
2023-04-21T06:38:40.084Z,8.10
2023-04-21T06:41:07.005Z,8.20
2023-04-21T06:43:34.805Z,8.40
2023-04-21T06:46:01.667Z,8.50
2023-04-21T06:48:29.981Z,8.50
2023-04-21T06:50:56.916Z,8.60
2023-04-21T06:53:23.728Z,8.70
2023-04-21T06:55:50.667Z,8.70
2023-04-21T06:58:19.172Z,8.70
2023-04-21T07:00:47.974Z,8.70
2023-04-21T07:03:14.912Z,8.70
2023-04-21T07:05:41.870Z,8.80
2023-04-21T07:08:08.713Z,8.80
2023-04-21T07:10:35.562Z,8.80
2023-04-21T07:13:02.369Z,8.90
2023-04-21T07:15:29.276Z,8.80
2023-04-21T07:17:56.302Z,8.70
2023-04-21T07:20:23.174Z,8.70
2023-04-21T07:22:49.935Z,8.70
2023-04-21T07:25:16.758Z,8.70
2023-04-21T07:27:43.507Z,8.70
2023-04-21T07:30:10.976Z,8.70
2023-04-21T07:32:38.865Z,8.70
2023-04-21T07:35:06.785Z,8.60
2023-04-21T07:37:33.557Z,8.60
2023-04-21T07:40:00.355Z,8.60
2023-04-21T07:42:27.363Z,8.60
2023-04-21T07:44:56.050Z,8.50
2023-04-21T07:47:22.989Z,8.50
2023-04-21T07:49:49.795Z,8.50
2023-04-21T07:52:16.637Z,8.60
2023-04-21T07:54:43.695Z,8.60
2023-04-21T07:57:10.583Z,8.60
2023-04-21T07:59:37.457Z,8.50
2023-04-21T08:02:04.587Z,8.40
2023-04-21T08:04:31.731Z,8.40
2023-04-21T08:06:59.118Z,8.40
2023-04-21T08:09:26.775Z,8.40
2023-04-21T08:11:54.793Z,8.40
2023-04-21T08:14:22.178Z,8.40
2023-04-21T08:16:49.287Z,8.40
2023-04-21T08:19:16.490Z,8.40
2023-04-21T08:21:43.573Z,8.40
2023-04-21T08:24:10.614Z,8.50
2023-04-21T08:26:37.733Z,8.50
2023-04-21T08:29:07.471Z,8.40
2023-04-21T08:31:34.581Z,8.40
2023-04-21T08:34:02.966Z,8.40
2023-04-21T08:36:30.826Z,8.30
2023-04-21T08:38:58.325Z,8.20
2023-04-21T08:41:25.726Z,8.20
2023-04-21T08:43:52.611Z,8.20
2023-04-21T08:46:20.187Z,8.20
2023-04-21T08:48:47.730Z,8.20
2023-04-21T08:51:18.282Z,8.20
2023-04-21T08:53:46.419Z,8.20
2023-04-21T08:56:13.410Z,8.20
2023-04-21T08:58:41.610Z,8.20
2023-04-21T09:01:09.054Z,8.20
2023-04-21T09:03:36.327Z,8.20
2023-04-21T09:06:08.459Z,8.20
2023-04-21T09:08:39.831Z,8.20
2023-04-21T09:11:06.718Z,8.20
2023-04-21T09:13:37.103Z,8.20
2023-04-21T09:16:08.435Z,8.20
2023-04-21T09:18:37.125Z,8.20
2023-04-21T09:21:10.878Z,8.20
2023-04-21T09:23:48.266Z,8.20
2023-04-21T09:26:16.093Z,8.20
2023-04-21T09:28:43.886Z,8.30
2023-04-21T09:31:29.439Z,8.30
2023-04-21T09:34:00.800Z,8.30
2023-04-21T09:36:29.572Z,8.30
2023-04-21T09:39:28.897Z,8.20
2023-04-21T09:41:50.778Z,8.10
2023-04-21T09:44:18.224Z,8.20
2023-04-21T09:46:46.670Z,8.30
2023-04-21T09:49:14.555Z,8.30
2023-04-21T09:52:10.414Z,8.30
2023-04-21T09:54:31.533Z,8.30
2023-04-21T09:57:01.684Z,8.30
2023-04-21T09:59:47.487Z,8.30
2023-04-21T10:02:14.471Z,8.30
2023-04-21T10:04:42.114Z,8.30
2023-04-21T10:07:10.266Z,8.40
2023-04-21T10:09:45.399Z,8.50
2023-04-21T10:12:12.218Z,8.60
2023-04-21T10:14:39.221Z,8.80
2023-04-21T10:17:07.274Z,9.20
2023-04-21T10:19:44.573Z,9.50
2023-04-21T10:22:11.480Z,9.70
2023-04-21T10:24:42.603Z,9.80
2023-04-21T10:27:12.861Z,10.00
2023-04-21T10:29:52.709Z,10.00
2023-04-21T10:32:42.590Z,10.10
2023-04-21T10:35:11.075Z,10.10
2023-04-21T10:37:37.853Z,10.20
2023-04-21T10:40:09.444Z,10.20
2023-04-21T10:42:37.264Z,10.10
2023-04-21T10:45:08.551Z,10.10
2023-04-21T10:47:44.318Z,10.10
2023-04-21T10:50:22.133Z,10.10
2023-04-21T10:53:10.064Z,10.20
2023-04-21T10:55:37.138Z,10.30
2023-04-21T10:58:05.613Z,10.30
2023-04-21T11:00:32.555Z,10.30
2023-04-21T11:03:03.829Z,10.30
2023-04-21T11:05:36.111Z,10.40
2023-04-21T11:08:11.996Z,10.60
2023-04-21T11:10:50.649Z,10.90
2023-04-21T11:13:17.502Z,11.10
2023-04-21T11:15:57.394Z,11.40
2023-04-21T11:18:43.934Z,11.60
2023-04-21T11:21:22.677Z,11.60
2023-04-21T11:23:56.632Z,11.70
2023-04-21T11:26:38.367Z,11.50
2023-04-21T11:29:08.341Z,11.40
2023-04-21T11:31:36.539Z,11.10
2023-04-21T11:34:07.021Z,11.00
2023-04-21T11:36:34.742Z,10.90
2023-04-21T11:39:22.027Z,10.80
2023-04-21T11:41:50.404Z,10.70
2023-04-21T11:44:37.481Z,10.70
2023-04-21T11:47:17.651Z,10.80
2023-04-21T11:49:48.684Z,10.70
2023-04-21T11:52:26.162Z,10.80
2023-04-21T11:55:02.828Z,10.90
2023-04-21T11:57:31.223Z,11.00
2023-04-21T12:00:02.247Z,11.20
2023-04-21T12:02:30.535Z,11.60
2023-04-21T12:05:11.354Z,12.00
2023-04-21T12:07:42.945Z,12.20
2023-04-21T12:10:19.880Z,12.40
2023-04-21T12:12:47.036Z,12.70
2023-04-21T12:15:19.453Z,12.70
2023-04-21T12:17:54.139Z,12.70
2023-04-21T12:20:24.490Z,12.70
2023-04-21T12:22:52.488Z,12.60
2023-04-21T12:25:19.453Z,12.60
2023-04-21T12:27:53.195Z,12.60
2023-04-21T12:30:20.740Z,12.70
2023-04-21T12:32:49.363Z,12.70
2023-04-21T12:35:16.398Z,12.80
2023-04-21T12:37:43.265Z,13.30
2023-04-21T12:40:10.692Z,13.60
2023-04-21T12:42:38.371Z,14.30
2023-04-21T12:45:06.643Z,14.80
2023-04-21T12:47:36.904Z,15.00
2023-04-21T12:50:04.573Z,15.10
2023-04-21T12:52:31.575Z,15.10
2023-04-21T12:54:58.434Z,15.00
2023-04-21T12:57:25.487Z,14.70
2023-04-21T12:59:52.437Z,14.30
2023-04-21T13:02:19.405Z,14.50
2023-04-21T13:04:46.731Z,14.60
2023-04-21T13:07:14.841Z,14.70
2023-04-21T13:09:41.718Z,14.50
2023-04-21T13:12:08.665Z,14.40
2023-04-21T13:14:35.680Z,14.30
2023-04-21T13:17:02.618Z,14.50
2023-04-21T13:19:30.061Z,14.40
2023-04-21T13:21:57.055Z,14.50
2023-04-21T13:24:23.937Z,14.50
2023-04-21T13:26:50.880Z,14.60
2023-04-21T13:29:17.745Z,14.80
2023-04-21T13:31:44.647Z,15.20
2023-04-21T13:34:11.569Z,15.40
2023-04-21T13:36:38.437Z,16.20
2023-04-21T13:39:05.814Z,16.50
2023-04-21T13:41:32.759Z,16.30
2023-04-21T13:43:59.721Z,16.60
2023-04-21T13:46:26.930Z,16.20
2023-04-21T13:48:54.482Z,16.00
2023-04-21T13:51:21.501Z,15.90
2023-04-21T13:53:48.973Z,15.70
2023-04-21T13:56:16.430Z,15.40
2023-04-21T13:58:43.491Z,15.10
2023-04-21T14:01:14.653Z,14.80
2023-04-21T14:03:41.876Z,14.30
2023-04-21T14:06:09.117Z,13.80
2023-04-21T14:08:35.984Z,13.50
2023-04-21T14:11:03.647Z,13.30
2023-04-21T14:16:01.034Z,12.90
2023-04-21T14:18:28.004Z,12.80
2023-04-21T14:20:54.906Z,12.60
2023-04-21T14:23:25.055Z,12.50
2023-04-21T14:25:53.084Z,12.60
2023-04-21T14:28:21.855Z,13.10
2023-04-21T14:30:48.760Z,13.20
2023-04-21T14:33:15.702Z,13.20
2023-04-21T14:35:42.553Z,13.10
2023-04-21T14:38:09.449Z,13.00
2023-04-21T14:40:36.270Z,12.80
2023-04-21T14:43:03.226Z,12.60
2023-04-21T14:45:30.136Z,12.50
2023-04-21T14:47:57.137Z,12.50
2023-04-21T14:50:24.011Z,12.50
2023-04-21T14:52:50.867Z,12.50
2023-04-21T14:55:17.912Z,12.50
2023-04-21T14:57:44.859Z,12.70
2023-04-21T15:00:12.369Z,12.90
2023-04-21T15:02:42.152Z,12.90
2023-04-21T15:05:09.537Z,13.10
2023-04-21T15:07:36.334Z,13.30
2023-04-21T15:10:03.256Z,13.40
2023-04-21T15:12:30.159Z,13.90
2023-04-21T15:14:57.066Z,14.30
2023-04-21T15:17:24.366Z,14.60
2023-04-21T15:19:51.336Z,14.50
2023-04-21T15:22:18.258Z,14.20
2023-04-21T15:24:45.934Z,13.90
2023-04-21T15:27:12.835Z,13.40
2023-04-21T15:29:39.827Z,13.20
2023-04-21T15:32:08.659Z,13.00
2023-04-21T15:34:35.736Z,12.90
2023-04-21T15:37:02.619Z,12.80
2023-04-21T15:39:29.531Z,12.70
2023-04-21T15:41:56.727Z,12.80
2023-04-21T15:44:23.486Z,14.00
2023-04-21T15:46:50.702Z,15.30
2023-04-21T15:49:17.550Z,16.40
2023-04-21T15:51:46.867Z,16.80
2023-04-21T15:54:13.868Z,16.20
2023-04-21T15:56:40.751Z,15.50
2023-04-21T15:59:07.855Z,15.60
2023-04-21T16:01:37.063Z,16.20
2023-04-21T16:04:05.632Z,16.80
2023-04-21T16:06:33.182Z,17.40
2023-04-21T16:09:00.257Z,18.00
2023-04-21T16:11:29.141Z,18.30
2023-04-21T16:13:56.391Z,18.50
2023-04-21T16:16:23.341Z,19.20
2023-04-21T16:18:50.281Z,19.40
2023-04-21T16:21:17.074Z,19.60
2023-04-21T16:23:43.863Z,19.50
2023-04-21T16:26:10.872Z,19.80
2023-04-21T16:28:37.693Z,20.10
2023-04-21T16:31:04.740Z,19.80
2023-04-21T16:33:31.740Z,20.20
2023-04-21T16:35:58.537Z,19.50
2023-04-21T16:38:25.670Z,18.60
2023-04-21T16:40:52.785Z,17.60
2023-04-21T16:43:19.707Z,16.80
2023-04-21T16:45:46.571Z,16.30
2023-04-21T16:48:13.610Z,16.10
2023-04-21T16:50:44.182Z,16.30
2023-04-21T16:53:11.376Z,16.80
2023-04-21T16:55:38.269Z,17.60
2023-04-21T16:58:05.136Z,18.00
2023-04-21T17:00:32.103Z,17.90
2023-04-21T17:02:59.276Z,17.90
2023-04-21T17:05:26.300Z,17.90
2023-04-21T17:07:53.362Z,17.90
2023-04-21T17:10:20.386Z,17.90
2023-04-21T17:12:47.230Z,17.90
2023-04-21T17:15:14.184Z,17.90
2023-04-21T17:17:42.913Z,17.60
2023-04-21T17:20:11.443Z,17.80
2023-04-21T17:22:41.395Z,17.70
2023-04-21T17:25:08.866Z,17.50
2023-04-21T17:27:36.330Z,17.50
2023-04-21T17:30:04.789Z,17.10
2023-04-21T17:32:33.775Z,17.00
2023-04-21T17:35:01.330Z,17.10
2023-04-21T17:37:29.589Z,16.60
2023-04-21T17:39:56.477Z,16.00
2023-04-21T17:42:23.297Z,15.80
2023-04-21T17:44:50.154Z,15.40
2023-04-21T17:47:16.891Z,15.10
2023-04-21T17:49:43.659Z,14.80
2023-04-21T17:52:10.526Z,14.40
2023-04-21T17:54:37.654Z,14.20
2023-04-21T17:57:07.212Z,13.90
2023-04-21T17:59:34.079Z,13.70
2023-04-21T18:02:01.187Z,13.60
2023-04-21T18:04:30.770Z,13.50
2023-04-21T18:07:00.007Z,13.30
2023-04-21T18:09:27.014Z,13.30
2023-04-21T18:11:53.900Z,13.30
2023-04-21T18:14:21.201Z,13.20
2023-04-21T18:16:48.013Z,13.10
2023-04-21T18:19:16.156Z,12.90
2023-04-21T18:21:42.939Z,12.70
2023-04-21T18:24:09.725Z,12.50
2023-04-21T18:26:36.677Z,12.30
2023-04-21T18:29:03.545Z,12.00
2023-04-21T18:31:30.733Z,11.80
2023-04-21T18:33:57.677Z,11.70
2023-04-21T18:36:24.488Z,11.60
2023-04-21T18:38:51.296Z,11.40
2023-04-21T18:41:18.686Z,11.30
2023-04-21T18:43:45.657Z,11.20
2023-04-21T18:46:12.546Z,11.20
2023-04-21T18:48:39.729Z,11.10
2023-04-21T18:51:06.697Z,11.00
2023-04-21T18:53:33.610Z,10.90
2023-04-21T18:56:00.655Z,10.80
2023-04-21T18:58:27.539Z,10.60
2023-04-21T19:00:54.935Z,10.50
2023-04-21T19:03:22.589Z,10.50
2023-04-21T19:05:49.766Z,10.50
2023-04-21T19:08:18.266Z,10.30
2023-04-21T19:10:50.745Z,10.30
2023-04-21T19:13:18.655Z,10.30
2023-04-21T19:15:46.037Z,10.10
2023-04-21T19:18:13.042Z,10.10
2023-04-21T19:20:40.024Z,10.00
2023-04-21T19:23:09.218Z,9.90
2023-04-21T19:25:36.565Z,9.80
2023-04-21T19:28:04.300Z,9.70
2023-04-21T19:30:31.271Z,9.70
2023-04-21T19:32:58.247Z,9.60
2023-04-21T19:35:25.068Z,9.50
2023-04-21T19:37:52.451Z,9.50
2023-04-21T19:40:19.802Z,9.40
2023-04-21T19:42:46.646Z,9.30
2023-04-21T19:45:13.616Z,9.30
2023-04-21T19:47:40.824Z,9.20
2023-04-21T19:50:08.574Z,9.10
2023-04-21T19:52:35.582Z,9.00
2023-04-21T19:55:02.531Z,8.90
2023-04-21T19:57:29.684Z,8.80
2023-04-21T19:59:56.459Z,8.80
2023-04-21T20:02:23.338Z,8.80
2023-04-21T20:04:50.933Z,8.70
2023-04-21T20:07:18.043Z,8.70
2023-04-21T20:09:45.203Z,8.70
2023-04-21T20:12:11.983Z,8.60
2023-04-21T20:14:39.037Z,8.60
2023-04-21T20:17:06.055Z,8.50
2023-04-21T20:19:33.822Z,8.40
2023-04-21T20:22:00.811Z,8.30
2023-04-21T20:24:27.861Z,8.20
2023-04-21T20:26:54.764Z,8.10
2023-04-21T20:29:21.788Z,8.00
2023-04-21T20:31:48.703Z,8.00
2023-04-21T20:34:15.815Z,8.00
2023-04-21T20:36:42.837Z,8.00
2023-04-21T20:39:09.666Z,8.10
2023-04-21T20:41:36.531Z,8.10
2023-04-21T20:44:03.893Z,8.20
2023-04-21T20:46:31.137Z,8.20
2023-04-21T20:48:58.074Z,8.20
2023-04-21T20:51:26.918Z,8.10
2023-04-21T20:53:53.755Z,8.10
2023-04-21T20:56:22.014Z,8.10
2023-04-21T20:58:48.892Z,8.10
2023-04-21T21:01:15.904Z,8.00
2023-04-21T21:03:43.089Z,8.00
2023-04-21T21:06:10.548Z,8.00
2023-04-21T21:08:37.671Z,8.00
2023-04-21T21:11:04.827Z,7.90
2023-04-21T21:13:31.720Z,7.90
2023-04-21T21:15:58.665Z,7.90
2023-04-21T21:18:25.725Z,7.80
2023-04-21T21:20:52.689Z,7.80
2023-04-21T21:23:19.590Z,7.70
2023-04-21T21:25:46.495Z,7.60
2023-04-21T21:28:13.338Z,7.50
2023-04-21T21:30:40.254Z,7.50
2023-04-21T21:33:07.231Z,7.40
2023-04-21T21:35:34.179Z,7.40
2023-04-21T21:38:01.088Z,7.40
2023-04-21T21:40:28.247Z,7.40
2023-04-21T21:42:55.164Z,7.50
2023-04-21T21:45:23.001Z,7.50
2023-04-21T21:47:50.387Z,7.50
2023-04-21T21:50:17.446Z,7.60
2023-04-21T21:52:44.248Z,7.50
2023-04-21T21:55:11.206Z,7.60
2023-04-21T21:57:38.194Z,7.50
2023-04-21T22:00:08.296Z,7.40
2023-04-21T22:02:38.310Z,7.40
2023-04-21T22:05:05.981Z,7.40
2023-04-21T22:07:32.934Z,7.40
2023-04-21T22:09:59.794Z,7.50
2023-04-21T22:12:26.939Z,7.50
2023-04-21T22:14:53.845Z,7.50
2023-04-21T22:17:21.459Z,7.50
2023-04-21T22:19:49.702Z,7.50
2023-04-21T22:22:16.623Z,7.50
2023-04-21T22:24:43.465Z,7.50
2023-04-21T22:27:10.546Z,7.50
2023-04-21T22:29:38.791Z,7.50
2023-04-21T22:32:06.108Z,7.40
2023-04-21T22:34:33.201Z,7.30
2023-04-21T22:37:00.323Z,7.20
2023-04-21T22:39:28.885Z,7.10
2023-04-21T22:41:57.386Z,7.10
2023-04-21T22:44:24.883Z,7.00
2023-04-21T22:46:52.030Z,7.00
2023-04-21T22:49:19.057Z,7.00
2023-04-21T22:51:47.347Z,7.00
2023-04-21T22:54:15.026Z,6.90
2023-04-21T22:56:42.161Z,6.80
2023-04-21T22:59:09.184Z,6.80
2023-04-21T23:01:36.326Z,6.70
2023-04-21T23:04:03.623Z,6.70
2023-04-21T23:06:32.123Z,6.60
2023-04-21T23:08:59.072Z,6.60
2023-04-21T23:11:25.897Z,6.50
2023-04-21T23:13:52.836Z,6.40
2023-04-21T23:16:19.764Z,6.30
2023-04-21T23:18:46.636Z,6.30
2023-04-21T23:21:13.753Z,6.30
2023-04-21T23:23:40.640Z,6.30
2023-04-21T23:26:07.526Z,6.30
2023-04-21T23:28:34.386Z,6.30
2023-04-21T23:31:01.421Z,6.20
2023-04-21T23:33:28.394Z,6.20
2023-04-21T23:35:56.226Z,6.10
2023-04-21T23:38:23.069Z,6.10
2023-04-21T23:40:49.879Z,6.10
2023-04-21T23:43:16.848Z,6.00
2023-04-21T23:45:43.864Z,5.90
2023-04-21T23:48:11.889Z,5.90
2023-04-21T23:50:38.722Z,5.80
2023-04-21T23:53:05.589Z,5.70
2023-04-21T23:55:32.463Z,5.70
2023-04-21T23:57:59.348Z,5.80
